createdAt,value
2018-12-31T00:02:31.137Z,89.94
2018-12-31T00:05:03.618Z,89.88
2018-12-31T00:07:34.439Z,89.82
2018-12-31T00:10:23.951Z,89.95
2018-12-31T00:12:55.154Z,90.16
2018-12-31T00:15:25.757Z,90.13
2018-12-31T00:17:56.557Z,90.41
2018-12-31T00:20:27.365Z,90.42
2018-12-31T00:22:57.805Z,90.18
2018-12-31T00:25:28.286Z,90.14
2018-12-31T00:27:59.022Z,90.81
2018-12-31T00:30:29.465Z,90.58
2018-12-31T00:33:00.293Z,90.59
2018-12-31T00:35:30.739Z,90.09
2018-12-31T00:38:01.978Z,90.22
2018-12-31T00:40:32.426Z,90.50
2018-12-31T00:43:22.691Z,90.33
2018-12-31T00:45:53.455Z,90.78
2018-12-31T00:48:23.896Z,90.71
2018-12-31T00:50:54.371Z,90.70
2018-12-31T00:53:25.140Z,90.70
2018-12-31T00:56:15.421Z,90.39
2018-12-31T00:58:45.873Z,90.85
2018-12-31T01:01:16.307Z,91.20
2018-12-31T01:04:07.842Z,91.08
2018-12-31T01:06:38.293Z,91.00
2018-12-31T01:09:08.819Z,91.51
2018-12-31T01:11:39.266Z,91.78
2018-12-31T01:14:09.711Z,91.47
2018-12-31T01:16:40.181Z,91.70
2018-12-31T01:19:10.997Z,91.82
2018-12-31T01:21:41.504Z,91.70
2018-12-31T01:24:11.943Z,92.00
2018-12-31T01:27:01.891Z,91.78
2018-12-31T01:29:32.338Z,92.08
2018-12-31T01:32:04.499Z,92.06
2018-12-31T01:34:35.642Z,92.17
2018-12-31T01:37:06.093Z,92.08
2018-12-31T01:39:38.303Z,92.31
2018-12-31T01:42:09.222Z,92.11
2018-12-31T01:44:40.095Z,92.31
2018-12-31T01:47:10.566Z,92.46
2018-12-31T01:49:41.014Z,92.77
2018-12-31T01:52:11.878Z,92.94
2018-12-31T01:54:42.351Z,93.15
2018-12-31T01:57:13.130Z,93.04
2018-12-31T01:59:45.713Z,92.93
2018-12-31T02:05:31.854Z,92.92
2018-12-31T02:08:02.312Z,93.29
2018-12-31T02:10:32.761Z,93.36
2018-12-31T02:13:03.906Z,93.31
2018-12-31T02:15:34.355Z,93.54
2018-12-31T02:18:04.861Z,93.59
2018-12-31T02:20:35.706Z,93.96
2018-12-31T02:23:06.547Z,93.49
2018-12-31T02:25:37.016Z,93.95
2018-12-31T02:28:07.459Z,93.98
2018-12-31T02:30:37.943Z,93.55
2018-12-31T02:33:08.787Z,93.82
2018-12-31T02:35:39.228Z,94.27
2018-12-31T02:38:11.850Z,93.90
2018-12-31T02:40:42.615Z,94.57
2018-12-31T02:43:14.817Z,94.32
2018-12-31T02:45:45.267Z,94.76
2018-12-31T02:48:15.731Z,94.86
2018-12-31T02:50:46.521Z,95.01
2018-12-31T02:53:17.369Z,94.64
2018-12-31T02:55:48.275Z,94.68
2018-12-31T03:01:08.439Z,94.81
2018-12-31T03:03:39.251Z,95.22
2018-12-31T03:06:10.052Z,94.96
2018-12-31T03:09:18.846Z,95.48
2018-12-31T03:11:49.693Z,95.34
2018-12-31T03:14:20.536Z,95.16
2018-12-31T03:16:50.980Z,95.38
2018-12-31T03:19:21.458Z,95.56
2018-12-31T03:21:51.904Z,95.74
2018-12-31T03:24:42.211Z,95.40
2018-12-31T03:27:12.662Z,95.21
2018-12-31T03:32:59.288Z,95.47
2018-12-31T03:35:49.175Z,95.21
2018-12-31T03:38:19.663Z,95.57
2018-12-31T03:40:50.271Z,95.72
2018-12-31T03:43:20.725Z,95.65
2018-12-31T03:45:51.201Z,95.89
2018-12-31T03:48:21.643Z,95.79
2018-12-31T03:50:52.453Z,95.69
2018-12-31T03:53:42.400Z,95.59
2018-12-31T03:56:12.892Z,95.84
2018-12-31T03:58:43.692Z,95.67
2018-12-31T04:01:14.491Z,95.80
2018-12-31T04:03:45.143Z,95.74
2018-12-31T04:06:15.958Z,95.72
2018-12-31T04:08:46.883Z,95.59
2018-12-31T04:11:17.330Z,95.97
2018-12-31T04:13:47.776Z,96.07
2018-12-31T04:16:37.731Z,96.08
2018-12-31T04:19:08.235Z,95.70
2018-12-31T04:21:38.679Z,95.63
2018-12-31T04:24:09.134Z,95.66
2018-12-31T04:26:39.607Z,95.50
2018-12-31T04:29:10.054Z,95.44
2018-12-31T04:31:42.572Z,95.38
2018-12-31T04:34:32.854Z,95.26
2018-12-31T04:37:03.310Z,95.25
2018-12-31T04:39:35.520Z,95.24
2018-12-31T04:42:07.697Z,95.20
2018-12-31T04:44:38.170Z,95.18
2018-12-31T04:47:09.025Z,95.13
2018-12-31T04:49:39.463Z,95.16
2018-12-31T04:52:09.955Z,95.09
2018-12-31T04:54:40.399Z,94.89
2018-12-31T04:57:10.902Z,94.85
2018-12-31T04:59:41.375Z,94.55
2018-12-31T05:02:11.827Z,94.77
2018-12-31T05:04:42.475Z,94.90
2018-12-31T05:07:12.920Z,95.27
2018-12-31T05:09:43.684Z,95.06
2018-12-31T05:12:14.159Z,95.08
2018-12-31T05:14:44.608Z,95.36
2018-12-31T05:17:15.116Z,95.44
2018-12-31T05:19:45.562Z,95.40
2018-12-31T05:22:16.019Z,95.39
2018-12-31T05:25:06.077Z,95.58
2018-12-31T05:27:56.698Z,95.32
2018-12-31T05:30:27.206Z,95.52
2018-12-31T05:32:59.375Z,95.31
2018-12-31T05:35:29.847Z,95.48
2018-12-31T05:38:02.373Z,95.59
2018-12-31T05:40:32.819Z,95.61
2018-12-31T05:43:03.733Z,95.51
2018-12-31T05:45:34.927Z,95.77
2018-12-31T05:48:05.769Z,95.91
2018-12-31T05:50:36.245Z,95.38
2018-12-31T05:53:06.763Z,95.47
2018-12-31T05:55:37.605Z,95.58
2018-12-31T05:58:08.054Z,95.70
2018-12-31T06:00:42.093Z,95.73
2018-12-31T06:03:32.251Z,95.86
2018-12-31T06:06:02.770Z,96.29
2018-12-31T06:08:33.264Z,96.09
2018-12-31T06:11:04.084Z,96.21
2018-12-31T06:13:34.536Z,96.16
2018-12-31T06:16:05.012Z,95.72
2018-12-31T06:18:35.791Z,96.06
2018-12-31T06:21:06.444Z,96.10
2018-12-31T06:23:36.922Z,96.05
2018-12-31T06:26:07.335Z,96.06
2018-12-31T06:28:37.807Z,96.21
2018-12-31T06:31:10.330Z,96.25
2018-12-31T06:33:42.556Z,96.32
2018-12-31T06:36:32.850Z,96.54
2018-12-31T06:39:03.534Z,96.18
2018-12-31T06:41:33.977Z,96.37
2018-12-31T06:44:23.935Z,96.27
2018-12-31T06:47:13.863Z,96.03
2018-12-31T06:49:44.704Z,96.25
2018-12-31T06:52:15.164Z,96.46
2018-12-31T06:54:46.298Z,96.56
2018-12-31T06:57:16.795Z,96.87
2018-12-31T06:59:47.246Z,96.16
2018-12-31T07:02:18.112Z,96.24
2018-12-31T07:04:48.550Z,96.76
2018-12-31T07:07:37.934Z,96.27
2018-12-31T07:10:08.675Z,96.63
2018-12-31T07:12:39.124Z,96.84
2018-12-31T07:15:09.674Z,97.05
2018-12-31T07:17:40.119Z,97.03
2018-12-31T07:20:10.613Z,97.05
2018-12-31T07:22:41.057Z,96.61
2018-12-31T07:25:11.492Z,96.64
2018-12-31T07:27:42.329Z,96.43
2018-12-31T07:30:12.771Z,96.81
2018-12-31T07:33:02.704Z,96.96
2018-12-31T07:35:33.153Z,97.11
2018-12-31T07:38:03.678Z,97.04
2018-12-31T07:40:34.116Z,97.18
2018-12-31T07:43:04.557Z,96.79
2018-12-31T07:45:35.036Z,97.07
2018-12-31T07:48:05.471Z,96.95
2018-12-31T07:50:55.417Z,97.02
2018-12-31T07:53:26.156Z,97.23
2018-12-31T07:55:56.963Z,97.21
2018-12-31T07:58:27.452Z,97.03
2018-12-31T08:00:57.885Z,97.17
2018-12-31T08:03:28.321Z,97.21
2018-12-31T08:06:00.653Z,97.24
2018-12-31T08:08:32.800Z,97.31
2018-12-31T08:11:03.633Z,97.47
2018-12-31T08:13:34.116Z,97.51
2018-12-31T08:16:04.552Z,97.52
2018-12-31T08:18:35.338Z,97.11
2018-12-31T08:21:05.816Z,97.16
2018-12-31T08:23:36.251Z,97.15
2018-12-31T08:26:06.689Z,97.12
2018-12-31T08:28:37.633Z,96.79
2018-12-31T08:31:09.804Z,97.03
2018-12-31T08:33:40.242Z,97.47
2018-12-31T08:36:11.045Z,97.56
2018-12-31T08:38:41.484Z,97.62
2018-12-31T08:41:11.922Z,97.56
2018-12-31T08:43:42.805Z,97.67
2018-12-31T08:46:13.241Z,97.74
2018-12-31T08:48:43.679Z,97.66
2018-12-31T08:51:14.505Z,98.12
2018-12-31T08:53:45.759Z,97.86
2018-12-31T08:56:16.195Z,97.81
2018-12-31T08:58:47.075Z,97.85
2018-12-31T09:01:17.590Z,97.98
2018-12-31T09:03:48.321Z,98.02
2018-12-31T09:06:18.808Z,98.41
2018-12-31T09:08:49.277Z,98.65
2018-12-31T09:11:19.717Z,98.64
2018-12-31T09:13:50.493Z,98.42
2018-12-31T09:16:21.088Z,98.61
2018-12-31T09:18:51.524Z,98.92
2018-12-31T09:21:22.322Z,98.41
2018-12-31T09:23:54.802Z,98.76
2018-12-31T09:26:25.627Z,98.88
2018-12-31T09:28:56.113Z,98.69
2018-12-31T09:31:26.570Z,99.05
2018-12-31T09:33:57.002Z,99.42
2018-12-31T09:36:47.254Z,99.47
2018-12-31T09:39:19.413Z,99.70
2018-12-31T09:41:49.845Z,98.98
2018-12-31T09:44:20.340Z,99.36
2018-12-31T09:46:50.783Z,99.43
2018-12-31T09:49:21.621Z,99.20
2018-12-31T09:51:52.450Z,99.44
2018-12-31T09:54:22.902Z,98.86
2018-12-31T09:56:53.343Z,99.32
2018-12-31T09:59:25.540Z,99.23
2018-12-31T10:01:57.692Z,99.11
2018-12-31T10:04:30.233Z,99.42
2018-12-31T10:09:55.835Z,99.22
2018-12-31T10:12:45.789Z,99.33
2018-12-31T10:15:35.697Z,99.20
2018-12-31T10:18:06.190Z,99.41
2018-12-31T10:20:36.621Z,99.35
2018-12-31T10:23:07.050Z,98.99
2018-12-31T10:25:56.997Z,98.90
2018-12-31T10:28:27.735Z,99.10
2018-12-31T10:31:00.276Z,98.77
2018-12-31T10:33:30.760Z,98.94
2018-12-31T10:36:01.546Z,99.26
2018-12-31T10:38:31.985Z,99.45
2018-12-31T10:41:02.482Z,99.70
2018-12-31T10:43:33.245Z,99.23
2018-12-31T10:46:03.692Z,99.14
2018-12-31T10:48:34.599Z,99.50
2018-12-31T10:51:05.038Z,99.54
2018-12-31T10:53:35.785Z,99.52
2018-12-31T10:56:06.583Z,99.73
2018-12-31T10:58:37.026Z,99.93
2018-12-31T11:01:07.470Z,99.79
2018-12-31T11:03:38.309Z,100.00
2018-12-31T11:06:09.055Z,99.97
2018-12-31T11:08:39.521Z,99.72
2018-12-31T11:14:05.873Z,99.77
2018-12-31T11:16:36.362Z,99.16
2018-12-31T11:19:26.272Z,99.40
2018-12-31T11:21:57.073Z,99.24
2018-12-31T11:24:27.902Z,99.20
2018-12-31T11:29:47.704Z,99.15
2018-12-31T11:32:37.017Z,99.28
2018-12-31T11:35:07.905Z,99.18
2018-12-31T11:37:38.342Z,98.84
2018-12-31T11:40:28.013Z,99.44
2018-12-31T11:42:58.841Z,99.38
2018-12-31T11:45:48.268Z,99.35
2018-12-31T11:48:18.715Z,99.47
2018-12-31T11:51:08.077Z,99.77
2018-12-31T11:53:38.871Z,99.33
2018-12-31T11:56:09.707Z,99.34
2018-12-31T11:58:40.974Z,99.16
2018-12-31T12:01:11.409Z,99.10
2018-12-31T12:03:43.563Z,98.98
2018-12-31T12:06:14.041Z,98.95
2018-12-31T12:08:44.922Z,98.71
2018-12-31T12:11:16.326Z,98.11
2018-12-31T12:13:46.818Z,98.55
2018-12-31T12:16:17.254Z,98.55
2018-12-31T12:21:37.351Z,97.97
2018-12-31T12:24:07.794Z,97.69
2018-12-31T12:26:38.569Z,97.71
2018-12-31T12:29:09.028Z,97.90
2018-12-31T12:31:41.176Z,97.84
2018-12-31T12:34:31.415Z,97.99
2018-12-31T12:37:40.349Z,97.38
2018-12-31T12:40:30.301Z,97.62
2018-12-31T12:43:00.728Z,97.50
2018-12-31T12:45:50.688Z,97.54
2018-12-31T12:48:21.120Z,97.36
2018-12-31T12:50:51.940Z,97.42
2018-12-31T12:53:22.745Z,97.30
2018-12-31T12:55:53.179Z,97.50
2018-12-31T12:58:43.134Z,97.22
2018-12-31T13:01:33.034Z,96.97
2018-12-31T13:04:25.744Z,97.03
2018-12-31T13:07:15.950Z,97.34
2018-12-31T13:10:06.469Z,97.18
2018-12-31T13:12:36.905Z,96.89
2018-12-31T13:15:07.492Z,96.86
2018-12-31T13:17:57.442Z,96.34
2018-12-31T13:20:47.748Z,96.36
2018-12-31T13:23:18.589Z,96.26
2018-12-31T13:25:49.034Z,96.26
2018-12-31T13:28:39.000Z,96.34
2018-12-31T13:31:09.836Z,96.59
2018-12-31T13:33:42.304Z,96.13
2018-12-31T13:36:32.259Z,96.48
2018-12-31T13:42:11.929Z,96.57
2018-12-31T13:44:43.110Z,96.28
2018-12-31T13:47:13.564Z,96.87
2018-12-31T13:53:19.541Z,96.98
2018-12-31T13:55:49.987Z,97.48
2018-12-31T13:58:39.952Z,97.21
2018-12-31T14:01:29.857Z,97.42
2018-12-31T14:04:00.666Z,97.28
2018-12-31T14:06:31.507Z,97.30
2018-12-31T14:09:02.276Z,97.42
2018-12-31T14:11:33.288Z,97.06
2018-12-31T14:16:54.451Z,97.01
2018-12-31T14:19:25.558Z,97.21
2018-12-31T14:21:56.330Z,96.74
2018-12-31T14:24:46.286Z,96.80
2018-12-31T14:27:16.739Z,96.81
2018-12-31T14:29:47.183Z,96.76
2018-12-31T14:32:37.628Z,96.94
2018-12-31T14:35:09.896Z,96.77
2018-12-31T14:37:59.887Z,97.02
2018-12-31T14:40:50.144Z,97.12
2018-12-31T14:43:40.091Z,97.25
2018-12-31T14:46:30.009Z,96.84
2018-12-31T14:49:00.831Z,96.57
2018-12-31T14:51:31.284Z,96.62
2018-12-31T14:54:21.248Z,96.74
2018-12-31T14:56:52.078Z,97.02
2018-12-31T14:59:43.775Z,96.90
2018-12-31T15:02:14.534Z,96.77
2018-12-31T15:05:23.601Z,97.23
2018-12-31T15:07:54.053Z,97.31
2018-12-31T15:10:44.017Z,97.09
2018-12-31T15:13:33.931Z,97.15
2018-12-31T15:16:23.922Z,96.99
2018-12-31T15:19:14.213Z,96.94
2018-12-31T15:21:44.713Z,96.79
2018-12-31T15:24:15.167Z,96.86
2018-12-31T15:26:45.615Z,96.94
2018-12-31T15:29:17.827Z,96.78
2018-12-31T15:31:50.317Z,96.97
2018-12-31T15:34:42.598Z,97.09
2018-12-31T15:37:14.755Z,97.05
2018-12-31T15:39:45.204Z,97.11
2018-12-31T15:42:36.862Z,96.98
2018-12-31T15:45:26.787Z,97.18
2018-12-31T15:48:16.823Z,97.43
2018-12-31T15:50:47.645Z,97.39
2018-12-31T15:53:18.394Z,97.10
2018-12-31T15:56:10.026Z,97.20
2018-12-31T15:58:59.987Z,97.05
2018-12-31T16:04:20.296Z,97.46
2018-12-31T16:07:10.215Z,97.04
2018-12-31T16:10:00.177Z,97.36
2018-12-31T16:12:50.098Z,97.56
2018-12-31T16:15:40.061Z,97.29
2018-12-31T16:18:10.546Z,97.17
2018-12-31T16:21:02.202Z,97.15
2018-12-31T16:23:34.364Z,97.29
2018-12-31T16:26:24.320Z,97.02
2018-12-31T16:28:54.943Z,97.04
2018-12-31T16:31:25.387Z,97.03
2018-12-31T16:34:15.338Z,96.51
2018-12-31T16:36:46.201Z,96.79
2018-12-31T16:39:16.655Z,96.45
2018-12-31T16:44:42.388Z,96.44
2018-12-31T16:50:28.199Z,95.92
2018-12-31T16:52:58.697Z,95.93
2018-12-31T16:55:48.608Z,96.03
2018-12-31T16:58:38.567Z,95.83
2018-12-31T17:01:28.491Z,95.80
2018-12-31T17:03:58.991Z,95.99
2018-12-31T17:09:18.960Z,96.20
2018-12-31T17:12:09.013Z,95.66
2018-12-31T17:14:58.978Z,95.79
2018-12-31T17:17:29.428Z,95.53
2018-12-31T17:19:59.900Z,95.30
2018-12-31T17:22:30.715Z,95.80
2018-12-31T17:25:01.160Z,95.58
2018-12-31T17:27:51.118Z,95.67
2018-12-31T17:30:40.519Z,95.53
2018-12-31T17:33:11.015Z,95.34
2018-12-31T17:36:00.938Z,95.54
2018-12-31T17:38:31.828Z,95.66
2018-12-31T17:41:02.569Z,95.40
2018-12-31T17:43:52.850Z,95.14
2018-12-31T17:46:23.305Z,94.84
2018-12-31T17:49:14.973Z,95.03
2018-12-31T17:51:45.423Z,95.00
2018-12-31T17:54:15.873Z,94.76
2018-12-31T17:57:07.530Z,95.00
2018-12-31T17:59:37.979Z,94.69
2018-12-31T18:02:28.417Z,94.60
2018-12-31T18:05:17.834Z,94.81
2018-12-31T18:07:48.681Z,94.75
2018-12-31T18:13:33.494Z,94.48
2018-12-31T18:16:25.107Z,94.23
2018-12-31T18:18:55.599Z,93.90
2018-12-31T18:21:45.554Z,93.86
2018-12-31T18:24:17.750Z,93.98
2018-12-31T18:26:50.388Z,93.96
2018-12-31T18:29:22.603Z,93.92
2018-12-31T18:31:53.235Z,94.24
2018-12-31T18:34:24.058Z,94.12
2018-12-31T18:36:54.557Z,93.75
2018-12-31T18:39:25.004Z,94.28
2018-12-31T18:41:55.455Z,94.34
2018-12-31T18:44:26.070Z,94.66
2018-12-31T18:46:56.518Z,94.42
2018-12-31T18:49:27.353Z,94.54
2018-12-31T18:51:57.850Z,94.32
2018-12-31T18:57:39.167Z,93.99
2018-12-31T19:00:30.782Z,94.25
2018-12-31T19:03:03.346Z,93.82
2018-12-31T19:05:33.800Z,94.12
2018-12-31T19:08:04.345Z,94.42
2018-12-31T19:10:35.159Z,94.40
2018-12-31T19:13:05.930Z,94.59
2018-12-31T19:15:55.893Z,94.20
2018-12-31T19:18:26.337Z,94.34
2018-12-31T19:20:56.787Z,94.47
2018-12-31T19:23:27.675Z,94.43
2018-12-31T19:25:58.114Z,94.54
2018-12-31T19:28:28.557Z,94.78
2018-12-31T19:30:59.071Z,94.51
2018-12-31T19:33:29.835Z,94.65
2018-12-31T19:36:00.292Z,94.83
2018-12-31T19:38:50.247Z,94.78
2018-12-31T19:41:40.166Z,94.52
2018-12-31T19:44:30.131Z,94.85
2018-12-31T19:47:20.047Z,94.63
2018-12-31T19:49:50.549Z,94.61
2018-12-31T19:52:21.334Z,94.24
2018-12-31T19:54:51.779Z,94.58
2018-12-31T19:57:22.271Z,94.62
2018-12-31T19:59:54.444Z,94.31
2018-12-31T20:02:46.107Z,94.83
2018-12-31T20:05:16.556Z,94.69
2018-12-31T20:08:06.943Z,94.78
2018-12-31T20:10:37.801Z,94.92
2018-12-31T20:13:08.252Z,94.88
2018-12-31T20:15:38.759Z,94.96
2018-12-31T20:18:09.209Z,95.17
2018-12-31T20:20:40.033Z,95.11
2018-12-31T20:23:10.534Z,95.49
2018-12-31T20:26:00.480Z,95.51
2018-12-31T20:28:30.982Z,95.82
2018-12-31T20:31:20.900Z,95.43
2018-12-31T20:37:06.771Z,95.79
2018-12-31T20:39:37.623Z,95.88
2018-12-31T20:42:09.020Z,96.41
2018-12-31T20:44:39.855Z,96.27
2018-12-31T20:47:10.309Z,96.48
2018-12-31T20:49:40.768Z,96.89
2018-12-31T20:52:31.100Z,96.64
2018-12-31T20:55:01.939Z,96.70
2018-12-31T20:57:32.443Z,97.06
2018-12-31T21:00:22.359Z,96.67
2018-12-31T21:03:12.325Z,97.05
2018-12-31T21:06:02.248Z,96.67
2018-12-31T21:08:33.445Z,96.72
2018-12-31T21:11:03.889Z,96.60
2018-12-31T21:13:34.336Z,96.72
2018-12-31T21:16:05.618Z,96.30
2018-12-31T21:21:52.662Z,95.47
2018-12-31T21:24:23.816Z,95.37
2018-12-31T21:26:54.434Z,95.13
2018-12-31T21:29:24.889Z,94.96
2018-12-31T21:31:55.367Z,94.88
2018-12-31T21:34:25.818Z,95.21
2018-12-31T21:37:15.788Z,95.35
2018-12-31T21:39:58.964Z,95.35
2018-12-31T21:42:44.085Z,95.56
2018-12-31T21:45:22.240Z,95.35
2018-12-31T21:48:12.199Z,95.45
2018-12-31T21:50:43.066Z,95.48
2018-12-31T21:53:13.518Z,95.58
2018-12-31T21:55:43.993Z,95.37
2018-12-31T21:58:34.296Z,95.14
2018-12-31T22:01:04.792Z,95.21
2018-12-31T22:03:35.249Z,95.18
2018-12-31T22:06:26.923Z,94.92
2018-12-31T22:08:57.375Z,94.33
2018-12-31T22:11:47.315Z,94.71
2018-12-31T22:14:17.764Z,94.39
2018-12-31T22:16:48.506Z,94.31
2018-12-31T22:19:19.303Z,94.01
2018-12-31T22:21:49.749Z,93.66
2018-12-31T22:24:20.206Z,93.98
2018-12-31T22:26:52.788Z,93.47
2018-12-31T22:29:23.506Z,92.38
2018-12-31T22:31:54.359Z,92.13
2018-12-31T22:34:46.006Z,92.01
2018-12-31T22:37:16.571Z,91.39
2018-12-31T22:39:47.345Z,90.97
2018-12-31T22:42:39.367Z,90.92
2018-12-31T22:45:09.871Z,91.12
2018-12-31T22:47:42.066Z,90.98
2018-12-31T22:50:34.071Z,90.43
2018-12-31T22:53:04.531Z,90.67
2018-12-31T22:55:34.982Z,90.67
2018-12-31T22:58:05.690Z,90.29
2018-12-31T23:06:43.400Z,89.70
2018-12-31T23:09:15.903Z,89.18
2018-12-31T23:11:46.369Z,88.01
2018-12-31T23:14:16.837Z,87.63
2018-12-31T23:16:50.771Z,87.63
2018-12-31T23:19:21.227Z,87.79
2018-12-31T23:22:13.209Z,87.75
2018-12-31T23:24:43.747Z,87.57
2018-12-31T23:27:14.280Z,87.70
2018-12-31T23:29:45.503Z,87.95
2018-12-31T23:32:15.975Z,88.04
2018-12-31T23:38:02.825Z,87.87
2018-12-31T23:40:33.690Z,87.95
2018-12-31T23:43:06.537Z,87.17
2018-12-31T23:45:55.796Z,87.65
2018-12-31T23:48:26.674Z,87.56
2018-12-31T23:50:57.170Z,87.29
2018-12-31T23:53:27.626Z,87.80
2018-12-31T23:55:58.476Z,87.20
2018-12-31T23:58:47.935Z,87.18
